Mount Holly, North Carolina
Current Conditions -  °F | °C
As of 9:52 AM on Thursday 30 Oct 2014 (Local Time) from KCLT Reporting Station
Few Clouds Few Clouds  
Wind Chill: 58°   Ceiling: Unl
Heat Index: 58°   Visibility: 10mi
Dew Point: 39°   Wind: 9mph
Humidity: 49%   Direction: 360°N
Pressure: 30.08"   Gusts: NA
Location:  35.3°N, 81.02°W
Report Text: KCLT 301352Z 36008KT 10SM FEW060 14/04 A3008 RMK AO2 SLP183 T01440039
Loading
Personal Weather Stations






























Interactive Weather Map
Tropical Storm Tracking
New forecast layout! Learn more

10-Day Weather Forecast

Advertisements
Track Severe Weather on mobile